EFUT

Details ICAO EFUT (QVY)
Name Utti
Region Finland
Timezone Europe/Helsinki (UTC+2.0)
Plans Departing 1
Arriving 2
Stats Elevation 339 ft / 103 m (AMSL)
Location 60.896393° 26.938354°
Runways 1
Magnetic Variation 9.895° E
Sunrise 2017-12-11 07:14:33 UTC / 2017-12-11 09:14:33 Local
Sunset 2017-12-11 12:59:18 UTC / 2017-12-11 14:59:18 Local
Advertisement - Login to hide

Runways

ID Width Length Bearing (true) Bearing (mag) Surface Threshold Offset Overrun Length
07 148 ft / 45 m 6,540 ft / 1,994 m 78.01° 68.12° Asphalt 0 ft / 0 m 984 ft / 300 m
25 148 ft / 45 m 6,540 ft / 1,994 m 258.04° 248.15° Asphalt 0 ft / 0 m 858 ft / 262 m

Map

Weather


0- 5 10 15 20 25 30 35+ Temperature / ° C

Clouds and Precipitation
Forecast for 2017-12-11 06:00 UTC. Updated an hour ago

Ground ~20,000 ft ~40,000 ft Winds

METAR

EFUT 110350Z AUTO 11006KT 9999 OVC030 M01/M02 Q0999

TAF

Not found

Frequencies

Tower 130.80 MHz TWR
Tower 119.70 MHz TWR
Warning: Do not use this data for real-world aviation or navigation. No guarantee of current accuracy is given.